• Join FlightAware (Why Join?)
  • Login
  • US Flag 
08:04AM EDT


 

Airport Tracker/Info


-or-


 

Live Flight TrackerFlight Track Log ✈ N102WY ✈ 12-Sep-2013 ✈ KCYS - KCPR

Flight Track Log - Related Links

Times and Time Zones

All times are in EDT time to prevent confusion due to time zone crossing. See the N102WY flight status page for this flight to view local times or setup timezone preferences in your user account.

Time Position Orientation Groundspeed Altitude Reporting Facility
EDT Latitude Longitude Course Direction KTS MPH feet Rate Location/Type
09:23AM 41.1597 -104.8492 326° Northwest 206 237 7,600  Level Denver Center
09:24AM 41.2106 -104.9072 319° Northwest 217 250 10,400 2,760 Climbing Denver Center
09:25AM 41.2619 -104.9497 328° Northwest 226 260 13,300 2,340 Climbing Denver Center
09:26AM 41.3181 -104.9961 328° Northwest 241 277 15,200 2,040 Climbing Denver Center
09:27AM 41.3922 -105.0636 326° Northwest 277 319 17,500 1,860 Climbing Denver Center
09:28AM 41.5542 -105.1768 325° Northwest  Level Estimated
09:28AM 41.4594 -105.1239 326° Northwest 296 341 19,000  Level Denver Center
09:29AM 41.6208 -105.2375 326° Northwest  Level FlightAware Approximate
09:29AM 41.5292 -105.1864 326° Northwest 311 358 20,900  Level Denver Center
09:30AM 41.6067 -105.2567 326° Northwest 304 350 23,400 2,040 Climbing Denver Center
09:31AM 41.6675 -105.3133 325° Northwest 284 327 25,100 1,260 Climbing Denver Center
09:32AM 41.7306 -105.3697 326° Northwest 283 326 26,000 420 Climbing Denver Center
09:33AM 41.8150 -105.4458 326° Northwest 328 377 26,000  Level Denver Center
09:34AM 41.8942 -105.5194 325° Northwest 351 404 26,000  Level Denver Center
09:35AM 41.9744 -105.5928 326° Northwest 360 414 26,000  Level Denver Center
09:36AM 42.0761 -105.6850 326° Northwest 386 444 26,000  Level Denver Center
09:37AM 42.1603 -105.7639 325° Northwest 386 444 26,000 -900 Level Denver Center
09:39AM 42.2817 -105.8772 325° Northwest 408 470 24,100 -1,380 Descending Denver Center
09:40AM 42.3761 -105.9639 326° Northwest 422 486 23,000 -1,140 Descending Denver Center
09:41AM 42.4817 -106.0633 325° Northwest 414 476 21,800 -1,620 Descending Denver Center
09:42AM 42.5728 -106.1478 326° Northwest 414 476 19,800 -2,220 Descending Denver Center
09:43AM 42.6614 -106.2306 326° Northwest 405 466 17,300 -2,880 Descending Denver Center
09:44AM 42.7272 -106.3494 307° West 362 417 14,000 -3,180 Descending Denver Center
09:45AM 42.7753 -106.4572 301° West 352 405 10,900 -2,580 Descending Denver Center
09:46AM 42.8108 -106.5422 300° West 298 343 8,800 -1,320 Descending Denver Center
09:47AM 42.8697 -106.5358 North 285 328 8,300 -540 Descending Denver Center
09:49AM 42.9080 -106.4644 54° Northeast  Level Estimated
09:56AM 42.9080 -106.4644 90° East  Level Estimated
09:57AM 42.9080 -106.4644 90° East  Level Estimated